Time;durP1;ratioP1;P1;durP2;ratioP2;P2;SDS_P1;SDS_P2;PMS_P1;PMS_P2;Temp;Humidity;BMP_temperature;BMP_pressure;BME280_temperature;BME280_humidity;BME280_pressure;Samples;Min_cycle;Max_cycle;Signal;HPM_P1;HPM_P2
2022/08/17 00:01:05;;;;;;;0.88;0.35;;;16.10;86.70;;;;;;6334548;22;19999;-69
2022/08/17 00:03:37;;;;;;;2.25;0.52;;;16.20;86.90;;;;;;6335363;22;19994;-69
2022/08/17 00:06:17;;;;;;;2.00;0.40;;;16.10;87.00;;;;;;6333743;22;20041;-70
2022/08/17 00:08:55;;;;;;;2.83;0.20;;;16.20;87.10;;;;;;6334402;22;20192;-70
2022/08/17 00:11:29;;;;;;;0.95;0.10;;;16.10;87.20;;;;;;6335411;22;19999;-70
2022/08/17 00:14:05;;;;;;;1.40;1.33;;;16.10;87.30;;;;;;6332303;22;20048;-70
2022/08/17 00:16:36;;;;;;;2.13;0.35;;;16.10;87.50;;;;;;6334451;22;20018;-69
2022/08/17 00:19:42;;;;;;;1.90;0.98;;;16.10;87.70;;;;;;6334143;22;20327;-69
2022/08/17 00:22:17;;;;;;;1.35;0.47;;;16.10;87.80;;;;;;6334119;22;20003;-71
2022/08/17 00:24:44;;;;;;;1.67;0.40;;;16.10;88.00;;;;;;6333566;22;20048;-70
2022/08/17 00:27:11;;;;;;;0.55;0.30;;;16.10;88.10;;;;;;6334017;22;20006;-70
2022/08/17 00:29:37;;;;;;;4.50;0.55;;;16.10;88.20;;;;;;6335972;22;20426;-69
2022/08/17 00:32:04;;;;;;;3.47;1.20;;;16.10;88.40;;;;;;6333603;22;20045;-71
2022/08/17 00:34:31;;;;;;;3.08;0.57;;;16.10;88.60;;;;;;6335445;22;20090;-69
2022/08/17 00:36:57;;;;;;;4.75;0.38;;;16.10;88.80;;;;;;6334574;22;19998;-69
2022/08/17 00:39:24;;;;;;;23.23;3.00;;;16.10;89.10;;;;;;6334083;22;20003;-69
2022/08/17 00:41:50;;;;;;;4.70;0.30;;;16.10;89.30;;;;;;6333316;22;20580;-70
2022/08/17 00:44:17;;;;;;;3.85;0.52;;;16.20;89.40;;;;;;6333394;22;20011;-71
2022/08/17 00:46:46;;;;;;;7.63;0.63;;;16.10;89.40;;;;;;6335342;22;19996;-70
2022/08/17 00:49:14;;;;;;;0.22;0.20;;;16.10;89.50;;;;;;6333811;22;20273;-69
2022/08/17 00:51:43;;;;;;;3.30;0.45;;;16.10;90.10;;;;;;6334926;22;20006;-69
2022/08/17 00:54:35;;;;;;;2.65;0.57;;;16.10;89.70;;;;;;6334033;22;20002;-71
2022/08/17 00:57:27;;;;;;;0.50;0.20;;;16.10;90.10;;;;;;6319760;22;20072;-70
2022/08/17 00:59:58;;;;;;;2.13;0.50;;;16.10;90.20;;;;;;6335264;22;20002;-69
2022/08/17 01:02:26;;;;;;;1.00;0.40;;;16.10;90.30;;;;;;6333512;22;20010;-70
2022/08/17 01:05:32;;;;;;;8.65;0.63;;;16.10;90.40;;;;;;6334839;22;20106;-69
2022/08/17 01:08:01;;;;;;;3.10;0.45;;;16.10;90.40;;;;;;6334886;22;20418;-70
2022/08/17 01:10:37;;;;;;;1.15;0.20;;;16.10;90.30;;;;;;6334405;22;20453;-69
2022/08/17 01:13:05;;;;;;;0.47;0.17;;;16.00;90.30;;;;;;6334323;22;20013;-70
2022/08/17 01:15:36;;;;;;;0.47;0.22;;;16.00;90.30;;;;;;6335024;22;20011;-68
2022/08/17 01:18:06;;;;;;;0.10;0.10;;;16.00;90.30;;;;;;6333877;22;20067;-69
2022/08/17 01:20:33;;;;;;;0.55;0.20;;;16.00;90.20;;;;;;6334899;22;20003;-70
2022/08/17 01:23:00;;;;;;;3.80;0.30;;;16.00;90.20;;;;;;6333806;22;20410;-69
2022/08/17 01:25:28;;;;;;;2.63;0.30;;;16.00;90.20;;;;;;6335077;22;20422;-68
2022/08/17 01:27:55;;;;;;;1.88;0.20;;;16.00;90.30;;;;;;6333121;22;20048;-70
2022/08/17 01:30:22;;;;;;;0.70;0.10;;;16.00;90.40;;;;;;6335092;22;20007;-71
2022/08/17 01:32:48;;;;;;;0.40;0.10;;;16.00;90.30;;;;;;6334228;22;20394;-70
2022/08/17 01:35:15;;;;;;;0.85;0.20;;;16.00;90.30;;;;;;6334077;22;20442;-69
2022/08/17 01:37:42;;;;;;;2.70;0.20;;;16.00;90.30;;;;;;6334987;22;20030;-69
2022/08/17 01:40:31;;;;;;;1.02;0.10;;;16.00;90.20;;;;;;6333345;22;20013;-70
2022/08/17 01:43:11;;;;;;;0.88;0.35;;;16.00;90.20;;;;;;6334374;22;20011;-69
2022/08/17 01:45:42;;;;;;;0.20;0.08;;;16.00;90.20;;;;;;6333292;22;20007;-69
2022/08/17 01:48:10;;;;;;;0.45;0.08;;;15.90;90.10;;;;;;6334782;22;20424;-68
2022/08/17 01:50:38;;;;;;;2.38;0.15;;;16.00;90.10;;;;;;6335044;22;20027;-70
2022/08/17 01:53:17;;;;;;;1.52;0.13;;;16.00;90.10;;;;;;6333913;22;20066;-69
2022/08/17 01:55:48;;;;;;;8.82;0.75;;;15.90;90.10;;;;;;6334446;22;20085;-71
2022/08/17 01:58:15;;;;;;;8.73;0.30;;;16.00;90.20;;;;;;6332950;22;20459;-70
2022/08/17 02:00:44;;;;;;;1.80;0.32;;;16.00;90.20;;;;;;6334689;22;20024;-70
2022/08/17 02:03:11;;;;;;;1.52;0.20;;;16.00;90.20;;;;;;6333870;22;19995;-69
2022/08/17 02:05:38;;;;;;;0.35;0.10;;;16.00;90.10;;;;;;6334179;22;20023;-69
2022/08/17 02:08:06;;;;;;;0.10;0.10;;;15.90;90.10;;;;;;6335131;22;20426;-69
2022/08/17 02:10:33;;;;;;;0.80;0.15;;;15.90;90.10;;;;;;6334202;22;20006;-71
2022/08/17 02:13:01;;;;;;;2.53;0.10;;;15.90;90.30;;;;;;6334304;22;20023;-70
2022/08/17 02:15:28;;;;;;;7.22;0.30;;;15.90;90.00;;;;;;6333566;22;20487;-70
2022/08/17 02:17:54;;;;;;;0.77;0.10;;;15.90;90.00;;;;;;6334259;22;20067;-71
2022/08/17 02:20:21;;;;;;;2.20;0.20;;;15.90;90.00;;;;;;6333697;22;19999;-70
2022/08/17 02:22:49;;;;;;;1.58;0.30;;;15.90;90.10;;;;;;6333981;22;20094;-69
2022/08/17 02:25:19;;;;;;;5.72;0.38;;;15.90;90.50;;;;;;6334203;22;20007;-69
2022/08/17 02:27:46;;;;;;;1.80;0.30;;;15.90;90.40;;;;;;6333442;22;20010;-69
2022/08/17 02:30:14;;;;;;;5.07;0.40;;;15.90;90.40;;;;;;6334939;22;20418;-71
2022/08/17 02:32:41;;;;;;;0.70;0.22;;;15.90;90.30;;;;;;6335239;22;20033;-69
2022/08/17 02:35:08;;;;;;;1.40;0.10;;;15.90;90.30;;;;;;6336751;22;20081;-70
2022/08/17 02:37:35;;;;;;;0.13;0.00;;;15.90;90.10;;;;;;6334950;22;20081;-68
2022/08/17 02:40:02;;;;;;;0.98;0.17;;;15.90;90.10;;;;;;6335431;22;20424;-69
2022/08/17 02:42:38;;;;;;;0.10;0.10;;;15.90;90.10;;;;;;6336201;22;20068;-69
2022/08/17 02:45:12;;;;;;;0.00;0.00;;;15.90;90.00;;;;;;6335107;22;20007;-69
2022/08/17 02:47:40;;;;;;;0.65;0.10;;;15.90;90.00;;;;;;6335965;22;20338;-69
2022/08/17 02:50:08;;;;;;;0.03;0.03;;;15.80;89.70;;;;;;6334690;22;20003;-69
2022/08/17 02:52:37;;;;;;;0.10;0.10;;;15.80;89.80;;;;;;6335896;22;20002;-70
2022/08/17 02:55:10;;;;;;;0.22;0.10;;;15.80;89.90;;;;;;6335461;22;20017;-69
2022/08/17 02:57:37;;;;;;;0.13;0.00;;;15.80;90.00;;;;;;6335180;22;20380;-68
2022/08/17 03:00:10;;;;;;;3.20;0.20;;;15.80;90.00;;;;;;6336190;22;19998;-68
2022/08/17 03:02:42;;;;;;;0.30;0.10;;;15.80;90.00;;;;;;6334196;22;20060;-69
2022/08/17 03:05:11;;;;;;;0.00;0.00;;;15.80;90.00;;;;;;6335874;22;20007;-69
2022/08/17 03:07:38;;;;;;;0.20;0.20;;;15.80;90.00;;;;;;6335460;22;20427;-69
2022/08/17 03:10:06;;;;;;;0.47;0.28;;;15.80;90.00;;;;;;6335767;22;20010;-68
2022/08/17 03:12:34;;;;;;;1.45;0.10;;;15.80;90.20;;;;;;6335395;22;20013;-69
2022/08/17 03:15:06;;;;;;;0.45;0.08;;;15.80;89.90;;;;;;6335305;22;20038;-68
2022/08/17 03:17:32;;;;;;;5.47;0.20;;;15.80;89.90;;;;;;6335843;22;20028;-70
2022/08/17 03:19:59;;;;;;;0.00;0.00;;;15.80;90.00;;;;;;6334367;22;20480;-69
2022/08/17 03:22:29;;;;;;;0.08;0.08;;;15.80;90.10;;;;;;6335923;22;20027;-69
2022/08/17 03:24:55;;;;;;;4.00;0.10;;;15.80;90.20;;;;;;6335433;22;20030;-69
2022/08/17 03:27:22;;;;;;;2.25;0.10;;;15.80;90.30;;;;;;6335782;22;20026;-68
2022/08/17 03:29:48;;;;;;;0.00;0.00;;;15.90;90.50;;;;;;6335621;22;20007;-70
2022/08/17 03:32:16;;;;;;;0.00;0.00;;;15.80;90.50;;;;;;6334281;22;20010;-69
2022/08/17 03:34:43;;;;;;;0.63;0.10;;;15.80;90.50;;;;;;6336682;22;20018;-68
2022/08/17 03:37:09;;;;;;;0.63;0.00;;;15.80;90.60;;;;;;6333181;22;20009;-69
2022/08/17 03:39:36;;;;;;;0.75;0.10;;;15.80;90.60;;;;;;6335337;22;20007;-69
2022/08/17 03:42:12;;;;;;;0.35;0.05;;;15.80;90.60;;;;;;6333887;22;20006;-69
2022/08/17 03:44:38;;;;;;;0.32;0.10;;;15.80;90.70;;;;;;6334265;22;20010;-70
2022/08/17 03:58:44;;;;;;;2.13;0.03;;;15.80;90.50;;;;;;6334031;22;20014;-69
2022/08/17 04:01:11;;;;;;;16.52;0.93;;;15.80;90.60;;;;;;6334975;22;19999;-69
2022/08/17 04:04:17;;;;;;;7.13;0.30;;;15.80;90.80;;;;;;6333226;22;20078;-70
2022/08/17 04:07:24;;;;;;;7.88;1.25;;;15.80;91.00;;;;;;6334130;22;20073;-72
2022/08/17 04:10:30;;;;;;;13.57;9.32;;;15.80;91.10;;;;;;6334739;22;20007;-68
2022/08/17 04:13:36;;;;;;;4.32;3.65;;;15.80;91.40;;;;;;6334291;22;20006;-67
2022/08/17 04:16:43;;;;;;;1.60;0.60;;;15.80;90.50;;;;;;6333792;22;20014;-70
2022/08/17 04:19:49;;;;;;;7.55;1.02;;;15.60;91.00;;;;;;6335592;22;20051;-68
2022/08/17 04:22:55;;;;;;;0.52;0.28;;;15.60;91.30;;;;;;6335324;22;20003;-70
2022/08/17 04:26:01;;;;;;;0.22;0.10;;;15.60;91.30;;;;;;6334017;22;20092;-69
2022/08/17 04:29:07;;;;;;;0.10;0.00;;;15.70;91.20;;;;;;6334741;22;20446;-69
2022/08/17 04:32:13;;;;;;;0.82;0.80;;;15.70;91.20;;;;;;6335228;22;20041;-74
2022/08/17 04:35:19;;;;;;;5.65;4.65;;;15.70;91.20;;;;;;6334185;22;20003;-69
2022/08/17 04:37:46;;;;;;;6.18;4.65;;;15.70;91.10;;;;;;6331139;22;20056;-71
2022/08/17 04:43:12;;;;;;;6.80;1.20;;;15.70;90.90;;;;;;6276665;22;20004;-71
2022/08/17 04:45:41;;;;;;;2.50;0.57;;;15.60;90.80;;;;;;6333862;22;20315;-69
2022/08/17 04:48:07;;;;;;;10.98;1.63;;;15.60;91.00;;;;;;6335387;22;20029;-75
2022/08/17 04:50:35;;;;;;;2.97;0.28;;;15.60;91.30;;;;;;6333511;22;20077;-70
2022/08/17 04:53:02;;;;;;;2.40;0.20;;;15.60;91.60;;;;;;6334196;22;20010;-69
2022/08/17 04:55:28;;;;;;;2.25;0.20;;;15.70;91.70;;;;;;6334368;22;20017;-68
2022/08/17 04:57:55;;;;;;;0.45;0.30;;;15.70;92.00;;;;;;6335347;22;20067;-69
2022/08/17 05:00:24;;;;;;;0.90;0.13;;;15.70;92.10;;;;;;6334074;22;20430;-72
2022/08/17 05:02:53;;;;;;;1.85;0.55;;;15.70;92.20;;;;;;6334240;22;20033;-70
2022/08/17 05:05:28;;;;;;;3.65;0.30;;;15.70;92.30;;;;;;6335758;22;20005;-70
2022/08/17 05:07:57;;;;;;;2.33;0.57;;;15.70;92.40;;;;;;6333387;22;19995;-71
2022/08/17 05:10:25;;;;;;;2.42;0.20;;;15.70;92.50;;;;;;6334659;22;20010;-68
2022/08/17 05:13:08;;;;;;;3.60;0.40;;;15.70;92.60;;;;;;6333350;22;20471;-71
2022/08/17 05:15:37;;;;;;;2.78;0.40;;;15.70;92.60;;;;;;6334656;22;20038;-72
2022/08/17 05:18:04;;;;;;;2.22;0.32;;;15.70;92.60;;;;;;6334907;22;20002;-72
2022/08/17 05:20:32;;;;;;;2.35;0.20;;;15.70;92.70;;;;;;6333426;22;20002;-71
2022/08/17 05:23:03;;;;;;;1.13;0.20;;;15.70;92.70;;;;;;6334632;22;20026;-69
2022/08/17 05:25:33;;;;;;;6.13;0.45;;;15.70;92.80;;;;;;6333606;22;20017;-73
2022/08/17 05:27:59;;;;;;;0.80;0.80;;;15.70;92.80;;;;;;6334775;22;20304;-68
2022/08/17 05:30:27;;;;;;;0.35;0.20;;;15.80;92.80;;;;;;6334000;22;20009;-70
2022/08/17 05:32:59;;;;;;;0.10;0.10;;;15.70;92.80;;;;;;6334283;22;20009;-69
2022/08/17 05:35:28;;;;;;;1.10;0.60;;;15.70;92.80;;;;;;6334644;22;20315;-73
2022/08/17 05:37:55;;;;;;;2.15;0.20;;;15.70;92.70;;;;;;6333696;22;20003;-74
2022/08/17 05:40:22;;;;;;;2.42;0.38;;;15.70;92.70;;;;;;6334486;22;20124;-73
2022/08/17 05:42:49;;;;;;;0.82;0.40;;;15.70;92.70;;;;;;6333189;22;20078;-72
2022/08/17 05:45:18;;;;;;;0.45;0.28;;;15.70;92.70;;;;;;6334704;22;20046;-69
2022/08/17 05:47:46;;;;;;;0.30;0.30;;;15.80;92.70;;;;;;6333999;22;20010;-70
2022/08/17 05:50:22;;;;;;;0.43;0.25;;;15.70;92.70;;;;;;6334220;22;20350;-69
2022/08/17 05:53:00;;;;;;;;;;;15.70;92.70;;;;;;6335152;22;20033;-72
2022/08/17 05:55:31;;;;;;;;;;;15.70;92.70;;;;;;6334152;22;19942;-73
2022/08/17 05:58:01;;;;;;;;;;;15.70;92.70;;;;;;6335372;22;19899;-71
2022/08/17 06:00:35;;;;;;;;;;;15.70;92.70;;;;;;6334506;22;19899;-73
2022/08/17 06:03:04;;;;;;;;;;;15.70;92.60;;;;;;6334889;22;19899;-69
2022/08/17 06:06:00;;;;;;;;;;;15.70;92.70;;;;;;6335314;22;20306;-69
2022/08/17 06:08:44;;;;;;;;;;;15.70;92.70;;;;;;6223101;22;19903;-69
2022/08/17 06:11:21;;;;;;;;;;;15.70;92.70;;;;;;6335518;22;19903;-68
2022/08/17 06:14:05;;;;;;;;;;;15.70;92.70;;;;;;6334593;22;19898;-72
2022/08/17 06:16:37;;;;;;;;;;;15.70;92.70;;;;;;6333566;22;19906;-69
2022/08/17 06:19:15;;;;;;;;;;;15.70;92.60;;;;;;6335198;22;19898;-72
2022/08/17 06:21:45;;;;;;;;;;;15.70;92.60;;;;;;6333138;22;19899;-72
2022/08/17 06:24:23;;;;;;;;;;;15.70;92.80;;;;;;6335404;22;20234;-69
2022/08/17 06:26:50;;;;;;;;;;;15.60;92.80;;;;;;6334821;22;19914;-69
2022/08/17 06:29:16;;;;;;;;;;;15.60;93.00;;;;;;6335312;22;19899;-70
2022/08/17 06:31:42;;;;;;;;;;;15.70;93.30;;;;;;6334641;22;19903;-70
2022/08/17 06:34:09;;;;;;;;;;;15.70;93.40;;;;;;6333719;22;19906;-72
2022/08/17 06:36:54;;;;;;;;;;;15.70;93.40;;;;;;6335003;22;19898;-72
2022/08/17 06:39:48;;;;;;;;;;;15.70;93.30;;;;;;6333563;22;19899;-71
2022/08/17 06:42:39;;;;;;;;;;;15.70;93.20;;;;;;6334110;22;20017;-70
2022/08/17 06:45:19;;;;;;;;;;;15.70;93.10;;;;;;6335247;22;20216;-69
2022/08/17 06:47:46;;;;;;;;;;;15.70;93.10;;;;;;6334332;22;19933;-71
2022/08/17 06:50:14;;;;;;;;;;;15.70;93.00;;;;;;6335203;22;19991;-69
2022/08/17 06:52:45;;;;;;;;;;;15.70;92.90;;;;;;6333709;22;19910;-69
2022/08/17 06:55:13;;;;;;;;;;;15.60;92.90;;;;;;6334387;22;19907;-72
2022/08/17 06:57:44;;;;;;;;;;;15.60;93.10;;;;;;6334850;22;19898;-70
2022/08/17 07:00:12;;;;;;;;;;;15.70;93.40;;;;;;6333475;22;19898;-73
2022/08/17 07:02:57;;;;;;;;;;;15.70;93.70;;;;;;6335132;22;19946;-73
2022/08/17 07:05:35;;;;;;;;;;;15.70;93.90;;;;;;6334502;22;19951;-71
2022/08/17 07:08:13;;;;;;;;;;;15.70;93.80;;;;;;6333954;22;20275;-70
2022/08/17 07:10:42;;;;;;;;;;;15.70;93.80;;;;;;6335162;22;19902;-73
2022/08/17 07:13:31;;;;;;;;;;;15.70;93.90;;;;;;6333882;22;19909;-70
2022/08/17 07:16:02;;;;;;;;;;;15.80;94.30;;;;;;6318811;22;20617;-69
2022/08/17 07:18:28;;;;;;;;;;;15.80;94.60;;;;;;6336005;22;19933;-73
2022/08/17 07:20:58;;;;;;;;;;;15.80;94.40;;;;;;6336808;22;19898;-70
2022/08/17 07:23:29;;;;;;;;;;;15.90;94.40;;;;;;6337119;22;19910;-74
2022/08/17 07:26:03;;;;;;;;;;;15.90;94.60;;;;;;6334972;22;19914;-72
2022/08/17 07:28:30;;;;;;;;;;;15.90;94.70;;;;;;6336242;22;19899;-69
2022/08/17 07:30:56;;;;;;;;;;;15.90;94.80;;;;;;6334914;22;19906;-71
2022/08/17 07:33:25;;;;;;;;;;;15.90;94.90;;;;;;6336919;22;19898;-70
2022/08/17 07:35:51;;;;;;;;;;;15.90;95.00;;;;;;6335226;22;19917;-72
2022/08/17 07:38:22;;;;;;;;;;;16.00;95.10;;;;;;6335707;22;20332;-68
2022/08/17 07:41:02;;;;;;;;;;;16.00;95.10;;;;;;6335794;22;19898;-71
2022/08/17 07:43:30;;;;;;;;;;;16.00;95.20;;;;;;6335115;22;19898;-70
2022/08/17 07:48:51;;;;;;;;;;;16.00;95.00;;;;;;6335377;22;20239;-72
2022/08/17 07:51:17;;;;;;;;;;;15.90;94.80;;;;;;6335370;22;20226;-72
2022/08/17 07:53:44;;;;;;;;;;;15.90;94.60;;;;;;6336274;22;19899;-69
2022/08/17 07:56:14;;;;;;;;;;;15.90;94.60;;;;;;6334626;22;20376;-69
2022/08/17 07:58:41;;;;;;;;;;;15.90;94.50;;;;;;6336583;22;19899;-72
2022/08/17 08:01:14;;;;;;;;;;;15.90;94.40;;;;;;6335051;22;19899;-69
2022/08/17 08:03:41;;;;;;;;;;;15.90;94.40;;;;;;6336339;22;19899;-68
2022/08/17 08:06:19;;;;;;;;;;;15.90;94.40;;;;;;6336046;22;20294;-71
2022/08/17 08:08:49;;;;;;;;;;;15.90;94.50;;;;;;6335278;22;19914;-69
2022/08/17 08:11:28;;;;;;;;;;;15.90;94.60;;;;;;6335916;22;20207;-73
2022/08/17 08:13:54;;;;;;;;;;;15.90;94.70;;;;;;6334863;22;19905;-70
2022/08/17 08:16:28;;;;;;;;;;;16.00;94.90;;;;;;6335607;22;19942;-70
2022/08/17 08:18:59;;;;;;;;;;;16.00;95.00;;;;;;6335261;22;19898;-73
2022/08/17 08:21:28;;;;;;;;;;;16.00;95.00;;;;;;6335254;22;19955;-72
2022/08/17 08:23:57;;;;;;;;;;;16.00;95.00;;;;;;6335943;22;20403;-73
2022/08/17 08:26:25;;;;;;;;;;;16.00;95.00;;;;;;6334967;22;19917;-73
2022/08/17 08:28:59;;;;;;;;;;;16.00;95.00;;;;;;6335415;22;20242;-69
2022/08/17 08:31:25;;;;;;;;;;;16.10;95.10;;;;;;6334291;22;19902;-73
2022/08/17 08:33:59;;;;;;;;;;;16.10;95.10;;;;;;6335559;22;19969;-69
2022/08/17 08:36:49;;;;;;;;;;;16.00;95.10;;;;;;6335099;22;19930;-73
2022/08/17 08:39:23;;;;;;;;;;;16.10;95.10;;;;;;6334157;22;19910;-72
2022/08/17 08:41:54;;;;;;;;;;;16.00;95.10;;;;;;6336018;22;19902;-71
2022/08/17 08:44:33;;;;;;;;;;;16.10;95.20;;;;;;6335021;22;19981;-70
2022/08/17 08:47:12;;;;;;;;;;;16.10;95.20;;;;;;6335384;22;19905;-72
2022/08/17 08:49:41;;;;;;;;;;;16.10;95.20;;;;;;6335322;22;20261;-69
2022/08/17 08:52:13;;;;;;;;;;;16.10;95.20;;;;;;6334195;22;19956;-70
2022/08/17 08:54:54;;;;;;;;;;;16.20;95.20;;;;;;6335525;22;19906;-69
2022/08/17 08:57:32;;;;;;;;;;;16.20;95.30;;;;;;6334641;22;20225;-69
2022/08/17 09:00:09;;;;;;;;;;;16.20;95.30;;;;;;6336217;22;20340;-70
2022/08/17 09:02:54;;;;;;;;;;;16.20;95.30;;;;;;6335776;22;19924;-72
2022/08/17 09:05:32;;;;;;;;;;;16.30;95.30;;;;;;6334407;22;20315;-72
2022/08/17 09:08:10;;;;;;;;;;;16.30;95.20;;;;;;6335617;22;20306;-73
2022/08/17 09:10:55;;;;;;;;;;;16.20;95.10;;;;;;6334795;22;19913;-73
2022/08/17 09:13:21;;;;;;;;;;;16.30;95.10;;;;;;6335394;22;19906;-69
2022/08/17 09:15:51;;;;;;;;;;;16.20;95.00;;;;;;6336048;22;20265;-69
2022/08/17 09:18:40;;;;;;;;;;;16.20;95.00;;;;;;6334655;22;19937;-72
2022/08/17 09:21:15;;;;;;;;;;;16.30;95.00;;;;;;6335772;22;19898;-69
2022/08/17 09:23:50;;;;;;;;;;;16.20;95.00;;;;;;6334392;22;19898;-72
2022/08/17 09:26:23;;;;;;;;;;;16.30;95.00;;;;;;6334744;22;20278;-68
2022/08/17 09:28:54;;;;;;;;;;;16.20;95.00;;;;;;6335414;22;19925;-72
2022/08/17 09:31:23;;;;;;;;;;;16.30;95.10;;;;;;6334173;22;19982;-69
2022/08/17 09:33:50;;;;;;;;;;;16.30;95.30;;;;;;6335184;22;19898;-72
2022/08/17 09:36:21;;;;;;;;;;;16.30;95.40;;;;;;6334059;22;19906;-69
2022/08/17 09:38:53;;;;;;;;;;;16.30;95.60;;;;;;6335525;22;19899;-68
2022/08/17 09:41:31;;;;;;;;;;;16.40;95.80;;;;;;6335109;22;19900;-72
2022/08/17 09:44:00;;;;;;;;;;;16.30;95.90;;;;;;6333730;22;19898;-71
2022/08/17 09:46:33;;;;;;;;;;;16.40;95.90;;;;;;6335398;22;19964;-68
2022/08/17 09:49:08;;;;;;;;;;;16.40;95.90;;;;;;6333633;22;19977;-72
2022/08/17 09:51:34;;;;;;;;;;;16.40;95.90;;;;;;6335349;22;19943;-72
2022/08/17 09:54:01;;;;;;;;;;;16.40;95.90;;;;;;6335094;22;19928;-68
2022/08/17 09:56:45;;;;;;;;;;;16.40;95.90;;;;;;6334432;22;19906;-69
2022/08/17 09:59:15;;;;;;;;;;;16.40;95.90;;;;;;6335137;22;20271;-68
2022/08/17 10:02:00;;;;;;;;;;;16.40;95.90;;;;;;6333634;22;19977;-71
2022/08/17 10:04:28;;;;;;;;;;;16.40;96.00;;;;;;6335301;22;19947;-71
2022/08/17 10:07:06;;;;;;;;;;;16.40;96.10;;;;;;6334896;22;19898;-68
2022/08/17 10:09:41;;;;;;;;;;;16.40;96.10;;;;;;6334275;22;19902;-72
2022/08/17 10:12:20;;;;;;;;;;;16.40;96.00;;;;;;6335105;22;19903;-71
2022/08/17 10:15:04;;;;;;;;;;;16.40;96.00;;;;;;6333922;22;20322;-68
2022/08/17 10:17:39;;;;;;;;;;;16.40;96.00;;;;;;6335589;22;19930;-69
2022/08/17 10:20:11;;;;;;;;;;;16.40;96.20;;;;;;6334685;22;19903;-69
2022/08/17 10:28:17;;;;;;;;;;;16.40;96.40;;;;;;6333544;22;19914;-73
2022/08/17 10:30:46;;;;;;;;;;;16.40;96.60;;;;;;6334828;22;19995;-69
2022/08/17 10:33:15;;;;;;;;;;;16.40;96.60;;;;;;6334740;22;19899;-69
2022/08/17 10:35:48;;;;;;;;;;;16.40;96.60;;;;;;6333533;22;20297;-69
2022/08/17 10:38:32;;;;;;;;;;;16.40;96.70;;;;;;6334901;22;20402;-69
2022/08/17 10:41:17;;;;;;;;;;;16.40;96.90;;;;;;6334342;22;19964;-69
2022/08/17 10:43:57;;;;;;;;;;;16.40;97.00;;;;;;6334773;22;19898;-69
2022/08/17 10:46:43;;;;;;;;;;;16.50;97.10;;;;;;6335384;22;19906;-69
2022/08/17 10:49:31;;;;;;;;;;;16.50;97.30;;;;;;6332628;22;19985;-68
2022/08/17 10:51:59;;;;;;;;;;;16.50;97.30;;;;;;6336163;22;19903;-68
2022/08/17 10:54:37;;;;;;;;;;;16.50;97.30;;;;;;6335774;22;19902;-68
2022/08/17 10:57:23;;;;;;;;;;;16.50;97.20;;;;;;6335663;22;19902;-69
2022/08/17 10:59:50;;;;;;;;;;;16.50;97.10;;;;;;6336664;22;19917;-71
2022/08/17 11:02:26;;;;;;;;;;;16.40;97.10;;;;;;6335250;22;19905;-68
2022/08/17 11:04:52;;;;;;;;;;;16.50;97.20;;;;;;6336786;22;19899;-69
2022/08/17 11:07:18;;;;;;;;;;;16.50;97.20;;;;;;6336084;22;19898;-68
2022/08/17 11:10:02;;;;;;;;;;;16.50;97.20;;;;;;6335692;22;19905;-69
2022/08/17 11:12:41;;;;;;;;;;;16.50;97.30;;;;;;6336733;22;20222;-68
2022/08/17 11:15:26;;;;;;;;;;;16.50;97.30;;;;;;6335598;22;19906;-67
2022/08/17 11:17:52;;;;;;;;;;;16.50;97.30;;;;;;6337062;22;19899;-69
2022/08/17 11:20:37;;;;;;;;;;;16.50;97.20;;;;;;6335342;22;19930;-68
2022/08/17 11:23:03;;;;;;;;;;;16.60;97.10;;;;;;6335405;22;19910;-68
2022/08/17 11:25:37;;;;;;;;;;;16.60;97.00;;;;;;6336744;22;19907;-70
2022/08/17 11:28:05;;;;;;;;;;;16.60;96.90;;;;;;6334747;22;19898;-68
2022/08/17 11:30:43;;;;;;;;;;;16.60;96.80;;;;;;6336116;22;19903;-68
2022/08/17 11:33:27;;;;;;;;;;;16.70;96.70;;;;;;6335719;22;19920;-70
2022/08/17 11:36:12;;;;;;;;;;;16.70;96.60;;;;;;6335107;22;19913;-71
2022/08/17 11:38:41;;;;;;;;;;;16.80;96.50;;;;;;6336435;22;19898;-68
2022/08/17 11:41:13;;;;;;;;;;;16.80;96.40;;;;;;6335576;22;19898;-68
2022/08/17 11:43:44;;;;;;;;;;;16.80;96.20;;;;;;6336039;22;19902;-68
2022/08/17 11:46:11;;;;;;;;;;;16.80;96.10;;;;;;6335418;22;20226;-69
2022/08/17 11:51:51;;;;;;;;;;;16.80;95.80;;;;;;6336776;22;19909;-70
2022/08/17 11:54:18;;;;;;;;;;;16.80;95.70;;;;;;6334694;22;20306;-69
2022/08/17 11:56:48;;;;;;;;;;;16.80;95.60;;;;;;6336042;22;20322;-71
2022/08/17 11:59:42;;;;;;;;;;;16.80;95.60;;;;;;6336062;22;20280;-68
2022/08/17 12:02:33;;;;;;;;;;;16.80;95.50;;;;;;6287894;22;19969;-69
2022/08/17 12:05:26;;;;;;;;;;;16.80;95.50;;;;;;6335891;22;19898;-68
2022/08/17 12:08:13;;;;;;;;;;;16.80;95.40;;;;;;6335804;22;19909;-69
2022/08/17 12:10:48;;;;;;;;;;;16.90;95.40;;;;;;6334985;22;19956;-70
2022/08/17 12:13:15;;;;;;;;;;;16.90;95.30;;;;;;6335821;22;20372;-71
2022/08/17 12:15:47;;;;;;;;;;;16.90;95.20;;;;;;6334445;22;20342;-69
2022/08/17 12:18:19;;;;;;;;;;;16.90;95.20;;;;;;6335453;22;19912;-68
2022/08/17 12:20:50;;;;;;;;;;;16.90;95.40;;;;;;6335905;22;19973;-69
2022/08/17 12:23:21;;;;;;;;;;;16.90;95.00;;;;;;6335291;22;20265;-70
2022/08/17 12:25:59;;;;;;;;;;;16.90;94.90;;;;;;6335513;22;19916;-69
2022/08/17 12:28:25;;;;;;;;;;;16.90;94.90;;;;;;6334544;22;19906;-70
2022/08/17 12:30:51;;;;;;;;;;;16.90;94.90;;;;;;6335991;22;19944;-69
2022/08/17 12:33:20;;;;;;;;;;;17.00;94.90;;;;;;6334832;22;19930;-68
2022/08/17 12:35:46;;;;;;;;;;;16.90;94.80;;;;;;6335546;22;20337;-69
2022/08/17 12:38:15;;;;;;;;;;;16.90;94.70;;;;;;6335970;22;19902;-69
2022/08/17 12:40:52;;;;;;;;;;;16.90;94.70;;;;;;6334934;22;19899;-69
2022/08/17 12:43:19;;;;;;;;;;;16.90;94.60;;;;;;6335859;22;19951;-68
2022/08/17 12:45:53;;;;;;;;;;;16.90;94.60;;;;;;6334765;22;19943;-70
2022/08/17 12:48:23;;;;;;;;;;;16.80;94.50;;;;;;6336008;22;19899;-68
2022/08/17 12:50:50;;;;;;;;;;;16.80;94.60;;;;;;6335027;22;19950;-71
2022/08/17 12:53:20;;;;;;;;;;;16.80;94.60;;;;;;6335189;22;20302;-70
2022/08/17 12:55:47;;;;;;;;;;;16.80;94.60;;;;;;6335907;22;19956;-68
2022/08/17 12:58:17;;;;;;;;;;;16.80;94.60;;;;;;6334738;22;19899;-69
2022/08/17 13:00:47;;;;;;;;;;;16.80;94.70;;;;;;6335372;22;19898;-69
2022/08/17 13:03:21;;;;;;;;;;;16.80;94.60;;;;;;6334371;22;20268;-68
2022/08/17 13:05:56;;;;;;;;;;;16.80;94.60;;;;;;6336139;22;20467;-71
2022/08/17 13:08:26;;;;;;;;;;;16.80;94.60;;;;;;6335703;22;19946;-69
2022/08/17 13:10:56;;;;;;;;;;;16.80;94.50;;;;;;6335406;22;19898;-70
2022/08/17 13:13:27;;;;;;;;;;;16.90;94.40;;;;;;6334964;22;19905;-68
2022/08/17 13:15:55;;;;;;;;;;;16.90;94.20;;;;;;6334081;22;20322;-69
2022/08/17 13:18:34;;;;;;;;;;;16.90;94.10;;;;;;6336356;22;19957;-69
2022/08/17 13:21:01;;;;;;;;;;;16.90;93.90;;;;;;6335299;22;19902;-69
2022/08/17 13:23:28;;;;;;;;;;;16.80;93.70;;;;;;6335434;22;19898;-70
2022/08/17 13:25:54;;;;;;;;;;;16.80;93.50;;;;;;6335010;22;19910;-69
2022/08/17 13:28:22;;;;;;;;;;;16.80;93.50;;;;;;6333999;22;19898;-69
2022/08/17 13:30:48;;;;;;;;;;;16.80;93.50;;;;;;6335126;22;20329;-68
2022/08/17 13:33:24;;;;;;;;;;;16.80;93.50;;;;;;6334043;22;19918;-69
2022/08/17 13:36:04;;;;;;;;;;;16.80;93.60;;;;;;6335415;22;19971;-69
2022/08/17 13:38:39;;;;;;;;;;;16.80;93.60;;;;;;6334934;22;19985;-68
2022/08/17 13:41:06;;;;;;;;;;;16.80;93.60;;;;;;6334455;22;19898;-69
2022/08/17 13:43:43;;;;;;;;;;;16.80;93.60;;;;;;6335225;22;19930;-71
2022/08/17 13:46:11;;;;;;;;;;;16.80;93.50;;;;;;6333805;22;19973;-71
2022/08/17 13:48:37;;;;;;;;;;;16.80;93.40;;;;;;6336112;22;19898;-70
2022/08/17 13:51:06;;;;;;;;;;;16.80;93.30;;;;;;6334172;22;19898;-69
2022/08/17 13:53:35;;;;;;;;;;;16.80;93.30;;;;;;6334954;22;19985;-70
2022/08/17 13:56:08;;;;;;;;;;;16.80;93.30;;;;;;6334719;22;19911;-70
2022/08/17 13:58:39;;;;;;;;;;;16.80;93.30;;;;;;6334242;22;19898;-69
2022/08/17 14:01:24;;;;;;;;;;;16.80;93.30;;;;;;6335087;22;20303;-69
2022/08/17 14:03:50;;;;;;;;;;;16.80;93.20;;;;;;6334590;22;19903;-68
2022/08/17 14:06:16;;;;;;;;;;;16.90;93.30;;;;;;6334873;22;19903;-70
2022/08/17 14:08:42;;;;;;;;;;;16.90;93.20;;;;;;6334159;22;19898;-71
2022/08/17 14:11:08;;;;;;;;;;;16.90;93.20;;;;;;6334819;22;19956;-69
2022/08/17 14:13:35;;;;;;;;;;;17.00;93.20;;;;;;6334076;22;19899;-71
2022/08/17 14:16:02;;;;;;;;;;;17.00;93.20;;;;;;6333179;22;19952;-70
2022/08/17 14:18:28;;;;;;;;;;;17.00;93.20;;;;;;6334839;22;19977;-67
2022/08/17 14:20:55;;;;;;;;;;;17.10;93.30;;;;;;6333415;22;19899;-70
2022/08/17 14:23:22;;;;;;;;;;;17.10;93.50;;;;;;6334556;22;19981;-72
2022/08/17 14:25:48;;;;;;;;;;;17.10;93.50;;;;;;6335484;22;20307;-68
2022/08/17 14:28:14;;;;;;;;;;;17.10;93.70;;;;;;6336351;22;19985;-74
2022/08/17 14:30:41;;;;;;;;;;;17.10;93.90;;;;;;6336528;22;19906;-72
2022/08/17 14:33:08;;;;;;;;;;;17.10;94.10;;;;;;6335864;22;19899;-73
2022/08/17 14:35:34;;;;;;;;;;;17.00;94.20;;;;;;6336680;22;20001;-69
2022/08/17 14:38:03;;;;;;;;;;;17.00;94.30;;;;;;6335132;22;19907;-71